sensor_id;sensor_type;location;lat;lon;timestamp;temperature;humidity
25200;DHT22;33094;48.782;9.162;2023-04-15T00:02:18;7.60;99.00
25200;DHT22;33094;48.782;9.162;2023-04-15T00:04:46;7.60;99.20
25200;DHT22;33094;48.782;9.162;2023-04-15T00:07:12;7.50;99.30
25200;DHT22;33094;48.782;9.162;2023-04-15T00:09:40;7.50;99.50
25200;DHT22;33094;48.782;9.162;2023-04-15T00:12:06;7.50;99.60
25200;DHT22;33094;48.782;9.162;2023-04-15T00:14:33;7.60;99.60
25200;DHT22;33094;48.782;9.162;2023-04-15T00:17:00;7.60;99.70
25200;DHT22;33094;48.782;9.162;2023-04-15T00:19:25;7.80;99.70
25200;DHT22;33094;48.782;9.162;2023-04-15T00:21:51;7.70;99.60
25200;DHT22;33094;48.782;9.162;2023-04-15T00:24:17;7.60;99.60
25200;DHT22;33094;48.782;9.162;2023-04-15T00:26:42;7.50;99.60
25200;DHT22;33094;48.782;9.162;2023-04-15T00:29:08;7.40;99.50
25200;DHT22;33094;48.782;9.162;2023-04-15T00:31:34;7.30;99.50
25200;DHT22;33094;48.782;9.162;2023-04-15T00:33:59;7.20;99.50
25200;DHT22;33094;48.782;9.162;2023-04-15T00:36:25;7.20;99.40
25200;DHT22;33094;48.782;9.162;2023-04-15T00:38:50;7.20;99.50
25200;DHT22;33094;48.782;9.162;2023-04-15T00:41:17;7.20;99.60
25200;DHT22;33094;48.782;9.162;2023-04-15T00:43:43;7.20;99.50
25200;DHT22;33094;48.782;9.162;2023-04-15T00:46:11;7.20;99.70
25200;DHT22;33094;48.782;9.162;2023-04-15T00:48:38;7.30;99.80
25200;DHT22;33094;48.782;9.162;2023-04-15T00:51:05;7.30;99.80
25200;DHT22;33094;48.782;9.162;2023-04-15T00:53:32;7.30;99.80
25200;DHT22;33094;48.782;9.162;2023-04-15T00:55:57;7.20;99.90
25200;DHT22;33094;48.782;9.162;2023-04-15T00:58:23;7.00;99.90
25200;DHT22;33094;48.782;9.162;2023-04-15T01:00:50;6.90;99.90
25200;DHT22;33094;48.782;9.162;2023-04-15T01:03:18;6.80;99.90
25200;DHT22;33094;48.782;9.162;2023-04-15T01:05:45;6.80;99.90
25200;DHT22;33094;48.782;9.162;2023-04-15T01:08:11;6.70;99.90
25200;DHT22;33094;48.782;9.162;2023-04-15T01:10:37;6.70;99.90
25200;DHT22;33094;48.782;9.162;2023-04-15T01:13:03;6.70;99.90
25200;DHT22;33094;48.782;9.162;2023-04-15T01:15:29;6.70;99.90
25200;DHT22;33094;48.782;9.162;2023-04-15T01:17:58;6.70;99.90
25200;DHT22;33094;48.782;9.162;2023-04-15T01:20:24;6.70;99.90
25200;DHT22;33094;48.782;9.162;2023-04-15T01:22:50;6.70;99.90
25200;DHT22;33094;48.782;9.162;2023-04-15T01:25:18;6.70;99.90
25200;DHT22;33094;48.782;9.162;2023-04-15T01:27:44;6.60;99.90
25200;DHT22;33094;48.782;9.162;2023-04-15T01:30:10;6.60;99.90
25200;DHT22;33094;48.782;9.162;2023-04-15T01:32:36;6.60;99.90
25200;DHT22;33094;48.782;9.162;2023-04-15T01:35:02;6.70;99.90
25200;DHT22;33094;48.782;9.162;2023-04-15T01:37:28;6.70;99.90
25200;DHT22;33094;48.782;9.162;2023-04-15T01:39:53;6.70;99.90
25200;DHT22;33094;48.782;9.162;2023-04-15T01:42:20;6.70;99.90
25200;DHT22;33094;48.782;9.162;2023-04-15T01:44:46;6.80;99.90
25200;DHT22;33094;48.782;9.162;2023-04-15T01:47:12;6.60;99.90
25200;DHT22;33094;48.782;9.162;2023-04-15T01:49:38;6.60;99.90
25200;DHT22;33094;48.782;9.162;2023-04-15T01:52:04;6.60;99.90
25200;DHT22;33094;48.782;9.162;2023-04-15T01:54:30;6.50;99.90
25200;DHT22;33094;48.782;9.162;2023-04-15T01:56:55;6.50;99.90
25200;DHT22;33094;48.782;9.162;2023-04-15T01:59:21;6.50;99.90
25200;DHT22;33094;48.782;9.162;2023-04-15T02:01:47;6.50;99.90
25200;DHT22;33094;48.782;9.162;2023-04-15T02:04:13;6.40;99.90
25200;DHT22;33094;48.782;9.162;2023-04-15T02:06:42;6.40;99.90
25200;DHT22;33094;48.782;9.162;2023-04-15T02:09:08;6.50;99.90
25200;DHT22;33094;48.782;9.162;2023-04-15T02:11:35;6.50;99.90
25200;DHT22;33094;48.782;9.162;2023-04-15T02:14:02;6.50;99.90
25200;DHT22;33094;48.782;9.162;2023-04-15T02:16:29;6.50;99.90
25200;DHT22;33094;48.782;9.162;2023-04-15T02:18:55;6.40;99.90
25200;DHT22;33094;48.782;9.162;2023-04-15T02:21:20;6.40;99.90
25200;DHT22;33094;48.782;9.162;2023-04-15T02:23:47;6.40;99.90
25200;DHT22;33094;48.782;9.162;2023-04-15T02:26:13;6.30;99.90
25200;DHT22;33094;48.782;9.162;2023-04-15T02:28:38;6.30;99.90
25200;DHT22;33094;48.782;9.162;2023-04-15T02:31:05;6.30;99.90
25200;DHT22;33094;48.782;9.162;2023-04-15T02:33:31;6.20;99.90
25200;DHT22;33094;48.782;9.162;2023-04-15T02:35:56;6.20;99.90
25200;DHT22;33094;48.782;9.162;2023-04-15T02:38:23;6.10;99.90
25200;DHT22;33094;48.782;9.162;2023-04-15T02:40:49;6.00;99.90
25200;DHT22;33094;48.782;9.162;2023-04-15T02:43:16;6.00;99.90
25200;DHT22;33094;48.782;9.162;2023-04-15T02:45:42;6.00;99.90
25200;DHT22;33094;48.782;9.162;2023-04-15T02:48:08;6.00;99.90
25200;DHT22;33094;48.782;9.162;2023-04-15T02:50:34;6.00;99.90
25200;DHT22;33094;48.782;9.162;2023-04-15T02:53:00;6.00;99.90
25200;DHT22;33094;48.782;9.162;2023-04-15T02:55:27;5.90;99.90
25200;DHT22;33094;48.782;9.162;2023-04-15T02:57:53;5.90;99.90
25200;DHT22;33094;48.782;9.162;2023-04-15T03:00:18;5.90;99.90
25200;DHT22;33094;48.782;9.162;2023-04-15T03:02:45;5.90;99.90
25200;DHT22;33094;48.782;9.162;2023-04-15T03:05:12;5.90;99.90
25200;DHT22;33094;48.782;9.162;2023-04-15T03:07:38;6.00;99.90
25200;DHT22;33094;48.782;9.162;2023-04-15T03:10:05;5.90;99.90
25200;DHT22;33094;48.782;9.162;2023-04-15T03:12:31;5.90;99.90
25200;DHT22;33094;48.782;9.162;2023-04-15T03:14:57;6.00;99.90
25200;DHT22;33094;48.782;9.162;2023-04-15T03:17:22;6.10;99.90
25200;DHT22;33094;48.782;9.162;2023-04-15T03:19:48;6.20;99.90
25200;DHT22;33094;48.782;9.162;2023-04-15T03:22:14;6.10;99.90
25200;DHT22;33094;48.782;9.162;2023-04-15T03:24:39;6.00;99.90
25200;DHT22;33094;48.782;9.162;2023-04-15T03:27:05;6.10;99.90
25200;DHT22;33094;48.782;9.162;2023-04-15T03:29:32;6.00;99.90
25200;DHT22;33094;48.782;9.162;2023-04-15T03:31:58;6.00;99.90
25200;DHT22;33094;48.782;9.162;2023-04-15T03:34:23;6.10;99.90
25200;DHT22;33094;48.782;9.162;2023-04-15T03:36:49;6.00;99.90
25200;DHT22;33094;48.782;9.162;2023-04-15T03:39:15;6.00;99.90
25200;DHT22;33094;48.782;9.162;2023-04-15T03:41:40;6.10;99.90
25200;DHT22;33094;48.782;9.162;2023-04-15T03:44:06;6.00;99.90
25200;DHT22;33094;48.782;9.162;2023-04-15T03:46:32;6.10;99.90
25200;DHT22;33094;48.782;9.162;2023-04-15T03:48:58;6.00;99.90
25200;DHT22;33094;48.782;9.162;2023-04-15T03:51:23;6.00;99.90
25200;DHT22;33094;48.782;9.162;2023-04-15T03:53:49;5.90;99.90
25200;DHT22;33094;48.782;9.162;2023-04-15T03:56:14;5.80;99.90
25200;DHT22;33094;48.782;9.162;2023-04-15T03:58:40;5.90;99.90
25200;DHT22;33094;48.782;9.162;2023-04-15T04:01:06;5.90;99.90
25200;DHT22;33094;48.782;9.162;2023-04-15T04:03:31;5.90;99.90
25200;DHT22;33094;48.782;9.162;2023-04-15T04:05:57;5.80;99.90
25200;DHT22;33094;48.782;9.162;2023-04-15T04:08:23;5.80;99.90
25200;DHT22;33094;48.782;9.162;2023-04-15T04:10:49;5.80;99.90
25200;DHT22;33094;48.782;9.162;2023-04-15T04:13:15;5.80;99.90
25200;DHT22;33094;48.782;9.162;2023-04-15T04:15:40;5.80;99.90
25200;DHT22;33094;48.782;9.162;2023-04-15T04:18:06;5.70;99.90
25200;DHT22;33094;48.782;9.162;2023-04-15T04:20:32;5.60;99.90
25200;DHT22;33094;48.782;9.162;2023-04-15T04:22:58;5.60;99.90
25200;DHT22;33094;48.782;9.162;2023-04-15T04:25:23;5.60;99.90
25200;DHT22;33094;48.782;9.162;2023-04-15T04:27:50;5.60;99.90
25200;DHT22;33094;48.782;9.162;2023-04-15T04:30:15;5.70;99.90
25200;DHT22;33094;48.782;9.162;2023-04-15T04:32:41;5.70;99.90
25200;DHT22;33094;48.782;9.162;2023-04-15T04:35:07;5.60;99.90
25200;DHT22;33094;48.782;9.162;2023-04-15T04:37:33;5.60;99.90
25200;DHT22;33094;48.782;9.162;2023-04-15T04:39:58;5.60;99.90
25200;DHT22;33094;48.782;9.162;2023-04-15T04:42:24;5.60;99.90
25200;DHT22;33094;48.782;9.162;2023-04-15T04:44:50;5.60;99.90
25200;DHT22;33094;48.782;9.162;2023-04-15T04:47:15;5.60;99.90
25200;DHT22;33094;48.782;9.162;2023-04-15T04:49:41;5.60;99.90
25200;DHT22;33094;48.782;9.162;2023-04-15T04:52:07;5.50;99.90
25200;DHT22;33094;48.782;9.162;2023-04-15T04:54:32;5.50;99.90
25200;DHT22;33094;48.782;9.162;2023-04-15T04:56:58;5.70;99.90
25200;DHT22;33094;48.782;9.162;2023-04-15T04:59:24;5.70;99.90
25200;DHT22;33094;48.782;9.162;2023-04-15T05:01:50;5.70;99.90
25200;DHT22;33094;48.782;9.162;2023-04-15T05:04:16;5.60;99.90
25200;DHT22;33094;48.782;9.162;2023-04-15T05:06:42;5.70;99.90
25200;DHT22;33094;48.782;9.162;2023-04-15T05:09:07;5.60;99.90
25200;DHT22;33094;48.782;9.162;2023-04-15T05:11:33;5.60;99.90
25200;DHT22;33094;48.782;9.162;2023-04-15T05:13:59;5.60;99.90
25200;DHT22;33094;48.782;9.162;2023-04-15T05:16:26;5.50;99.90
25200;DHT22;33094;48.782;9.162;2023-04-15T05:18:52;5.50;99.90
25200;DHT22;33094;48.782;9.162;2023-04-15T05:21:18;5.50;99.90
25200;DHT22;33094;48.782;9.162;2023-04-15T05:23:44;5.50;99.90
25200;DHT22;33094;48.782;9.162;2023-04-15T05:26:10;5.50;99.90
25200;DHT22;33094;48.782;9.162;2023-04-15T05:28:35;5.60;99.90
25200;DHT22;33094;48.782;9.162;2023-04-15T05:31:01;5.70;99.90
25200;DHT22;33094;48.782;9.162;2023-04-15T05:33:27;5.70;99.90
25200;DHT22;33094;48.782;9.162;2023-04-15T05:35:53;5.70;99.90
25200;DHT22;33094;48.782;9.162;2023-04-15T05:38:18;5.60;99.90
25200;DHT22;33094;48.782;9.162;2023-04-15T05:40:44;5.80;99.90
25200;DHT22;33094;48.782;9.162;2023-04-15T05:43:10;5.80;99.90
25200;DHT22;33094;48.782;9.162;2023-04-15T05:45:36;5.80;99.90
25200;DHT22;33094;48.782;9.162;2023-04-15T05:48:01;5.70;99.90
25200;DHT22;33094;48.782;9.162;2023-04-15T05:50:27;5.80;99.90
25200;DHT22;33094;48.782;9.162;2023-04-15T05:52:53;5.80;99.90
25200;DHT22;33094;48.782;9.162;2023-04-15T05:55:18;6.00;99.90
25200;DHT22;33094;48.782;9.162;2023-04-15T11:19:36;19.70;75.60
25200;DHT22;33094;48.782;9.162;2023-04-15T11:24:56;19.40;75.80
25200;DHT22;33094;48.782;9.162;2023-04-15T11:37:53;19.40;72.90
25200;DHT22;33094;48.782;9.162;2023-04-15T11:58:30;16.10;80.80
25200;DHT22;33094;48.782;9.162;2023-04-15T12:00:59;15.80;81.50
25200;DHT22;33094;48.782;9.162;2023-04-15T12:03:27;16.00;81.30
25200;DHT22;33094;48.782;9.162;2023-04-15T12:09:00;17.40;79.70
25200;DHT22;33094;48.782;9.162;2023-04-15T12:14:06;17.90;79.10
25200;DHT22;33094;48.782;9.162;2023-04-15T12:16:39;18.40;78.10
25200;DHT22;33094;48.782;9.162;2023-04-15T12:19:10;18.20;78.60
25200;DHT22;33094;48.782;9.162;2023-04-15T12:21:43;17.40;79.40
25200;DHT22;33094;48.782;9.162;2023-04-15T12:24:10;16.90;79.20
25200;DHT22;33094;48.782;9.162;2023-04-15T12:26:54;16.70;78.80
25200;DHT22;33094;48.782;9.162;2023-04-15T12:29:25;16.70;79.40
25200;DHT22;33094;48.782;9.162;2023-04-15T12:31:54;16.30;81.50
25200;DHT22;33094;48.782;9.162;2023-04-15T12:34:28;15.20;86.60
25200;DHT22;33094;48.782;9.162;2023-04-15T12:36:55;14.30;90.60
25200;DHT22;33094;48.782;9.162;2023-04-15T12:39:24;13.90;93.20
25200;DHT22;33094;48.782;9.162;2023-04-15T12:41:53;13.40;95.10
25200;DHT22;33094;48.782;9.162;2023-04-15T12:44:23;12.90;96.40
25200;DHT22;33094;48.782;9.162;2023-04-15T12:46:49;12.70;97.10
25200;DHT22;33094;48.782;9.162;2023-04-15T12:49:15;12.40;97.20
25200;DHT22;33094;48.782;9.162;2023-04-15T12:51:44;12.20;97.80
25200;DHT22;33094;48.782;9.162;2023-04-15T12:54:10;11.80;97.80
25200;DHT22;33094;48.782;9.162;2023-04-15T12:56:35;11.80;98.10
25200;DHT22;33094;48.782;9.162;2023-04-15T12:59:01;12.00;97.50
25200;DHT22;33094;48.782;9.162;2023-04-15T13:01:27;12.20;96.70
25200;DHT22;33094;48.782;9.162;2023-04-15T13:03:53;12.10;96.70
25200;DHT22;33094;48.782;9.162;2023-04-15T13:06:18;12.20;97.20
25200;DHT22;33094;48.782;9.162;2023-04-15T13:08:44;12.50;96.60
25200;DHT22;33094;48.782;9.162;2023-04-15T13:11:10;13.00;96.00
25200;DHT22;33094;48.782;9.162;2023-04-15T13:13:35;13.30;95.50
25200;DHT22;33094;48.782;9.162;2023-04-15T13:16:01;13.60;92.80
25200;DHT22;33094;48.782;9.162;2023-04-15T13:18:27;13.80;93.50
25200;DHT22;33094;48.782;9.162;2023-04-15T13:20:53;14.00;93.60
25200;DHT22;33094;48.782;9.162;2023-04-15T13:23:20;14.20;92.70
25200;DHT22;33094;48.782;9.162;2023-04-15T13:25:46;14.20;92.40
25200;DHT22;33094;48.782;9.162;2023-04-15T13:28:11;14.20;91.00
25200;DHT22;33094;48.782;9.162;2023-04-15T13:30:38;14.10;91.50
25200;DHT22;33094;48.782;9.162;2023-04-15T13:33:04;14.10;91.90
25200;DHT22;33094;48.782;9.162;2023-04-15T13:35:31;14.20;91.50
25200;DHT22;33094;48.782;9.162;2023-04-15T13:37:57;14.50;91.20
25200;DHT22;33094;48.782;9.162;2023-04-15T13:40:22;14.70;91.00
25200;DHT22;33094;48.782;9.162;2023-04-15T13:42:48;15.00;90.90
25200;DHT22;33094;48.782;9.162;2023-04-15T13:45:14;15.30;90.60
25200;DHT22;33094;48.782;9.162;2023-04-15T13:47:40;15.20;84.30
25200;DHT22;33094;48.782;9.162;2023-04-15T13:50:06;15.00;83.00
25200;DHT22;33094;48.782;9.162;2023-04-15T13:52:32;15.10;83.80
25200;DHT22;33094;48.782;9.162;2023-04-15T13:54:58;15.20;82.10
25200;DHT22;33094;48.782;9.162;2023-04-15T13:57:24;15.10;82.60
25200;DHT22;33094;48.782;9.162;2023-04-15T13:59:50;15.00;82.20
25200;DHT22;33094;48.782;9.162;2023-04-15T14:02:15;14.90;81.40
25200;DHT22;33094;48.782;9.162;2023-04-15T14:04:41;14.80;81.30
25200;DHT22;33094;48.782;9.162;2023-04-15T14:07:06;14.70;80.80
25200;DHT22;33094;48.782;9.162;2023-04-15T14:09:32;14.60;81.00
25200;DHT22;33094;48.782;9.162;2023-04-15T14:11:59;14.40;81.70
25200;DHT22;33094;48.782;9.162;2023-04-15T14:14:25;14.20;82.30
25200;DHT22;33094;48.782;9.162;2023-04-15T14:16:51;14.10;79.90
25200;DHT22;33094;48.782;9.162;2023-04-15T14:19:17;13.90;79.40
25200;DHT22;33094;48.782;9.162;2023-04-15T14:21:42;14.00;80.00
25200;DHT22;33094;48.782;9.162;2023-04-15T14:24:08;14.10;79.90
25200;DHT22;33094;48.782;9.162;2023-04-15T14:26:34;14.20;80.60
25200;DHT22;33094;48.782;9.162;2023-04-15T14:28:59;14.20;80.90
25200;DHT22;33094;48.782;9.162;2023-04-15T14:31:25;14.10;81.60
25200;DHT22;33094;48.782;9.162;2023-04-15T14:33:51;14.20;81.70
25200;DHT22;33094;48.782;9.162;2023-04-15T14:36:16;14.20;81.70
25200;DHT22;33094;48.782;9.162;2023-04-15T14:38:42;14.20;81.80
25200;DHT22;33094;48.782;9.162;2023-04-15T14:41:08;14.20;81.70
25200;DHT22;33094;48.782;9.162;2023-04-15T14:43:34;14.00;81.70
25200;DHT22;33094;48.782;9.162;2023-04-15T14:46:00;13.70;82.00
25200;DHT22;33094;48.782;9.162;2023-04-15T14:48:26;13.50;82.70
25200;DHT22;33094;48.782;9.162;2023-04-15T14:50:52;13.30;82.90
25200;DHT22;33094;48.782;9.162;2023-04-15T14:53:18;13.10;83.60
25200;DHT22;33094;48.782;9.162;2023-04-15T14:55:43;13.00;84.10
25200;DHT22;33094;48.782;9.162;2023-04-15T14:58:10;13.00;84.50
25200;DHT22;33094;48.782;9.162;2023-04-15T15:00:39;12.70;85.40
25200;DHT22;33094;48.782;9.162;2023-04-15T15:03:08;12.80;85.80
25200;DHT22;33094;48.782;9.162;2023-04-15T15:05:41;12.70;86.90
25200;DHT22;33094;48.782;9.162;2023-04-15T15:08:07;12.60;86.80
25200;DHT22;33094;48.782;9.162;2023-04-15T15:10:34;12.70;87.20
25200;DHT22;33094;48.782;9.162;2023-04-15T15:13:04;12.60;88.00
25200;DHT22;33094;48.782;9.162;2023-04-15T15:15:30;12.40;88.30
25200;DHT22;33094;48.782;9.162;2023-04-15T15:17:56;12.40;89.00
25200;DHT22;33094;48.782;9.162;2023-04-15T15:20:22;12.50;89.10
25200;DHT22;33094;48.782;9.162;2023-04-15T15:22:48;12.20;89.40
25200;DHT22;33094;48.782;9.162;2023-04-15T15:25:13;12.10;90.10
25200;DHT22;33094;48.782;9.162;2023-04-15T15:27:39;12.10;90.30
25200;DHT22;33094;48.782;9.162;2023-04-15T15:30:05;12.20;90.10
25200;DHT22;33094;48.782;9.162;2023-04-15T15:32:31;12.20;90.10
25200;DHT22;33094;48.782;9.162;2023-04-15T15:34:57;12.20;90.20
25200;DHT22;33094;48.782;9.162;2023-04-15T15:37:22;12.30;90.60
25200;DHT22;33094;48.782;9.162;2023-04-15T15:39:48;12.30;90.70
25200;DHT22;33094;48.782;9.162;2023-04-15T15:42:15;12.20;90.50
25200;DHT22;33094;48.782;9.162;2023-04-15T15:44:41;12.10;90.60
25200;DHT22;33094;48.782;9.162;2023-04-15T15:47:07;12.10;91.20
25200;DHT22;33094;48.782;9.162;2023-04-15T15:49:32;12.20;90.60
25200;DHT22;33094;48.782;9.162;2023-04-15T15:51:58;12.30;90.90
25200;DHT22;33094;48.782;9.162;2023-04-15T15:54:24;12.30;90.90
25200;DHT22;33094;48.782;9.162;2023-04-15T15:56:50;12.30;91.20
25200;DHT22;33094;48.782;9.162;2023-04-15T15:59:15;12.30;91.30
25200;DHT22;33094;48.782;9.162;2023-04-15T16:01:42;12.30;91.50
25200;DHT22;33094;48.782;9.162;2023-04-15T16:04:08;12.40;91.40
25200;DHT22;33094;48.782;9.162;2023-04-15T16:06:34;12.60;91.50
25200;DHT22;33094;48.782;9.162;2023-04-15T16:09:00;12.60;91.50
25200;DHT22;33094;48.782;9.162;2023-04-15T16:11:26;12.50;91.10
25200;DHT22;33094;48.782;9.162;2023-04-15T16:13:52;12.30;91.60
25200;DHT22;33094;48.782;9.162;2023-04-15T16:16:18;12.20;92.80
25200;DHT22;33094;48.782;9.162;2023-04-15T16:18:43;12.00;93.70
25200;DHT22;33094;48.782;9.162;2023-04-15T16:21:09;11.90;94.50
25200;DHT22;33094;48.782;9.162;2023-04-15T16:23:35;11.80;95.10
25200;DHT22;33094;48.782;9.162;2023-04-15T16:26:01;11.70;95.60
25200;DHT22;33094;48.782;9.162;2023-04-15T16:28:27;11.70;96.30
25200;DHT22;33094;48.782;9.162;2023-04-15T16:30:53;11.50;96.90
25200;DHT22;33094;48.782;9.162;2023-04-15T16:33:19;11.50;97.50
25200;DHT22;33094;48.782;9.162;2023-04-15T16:35:45;11.40;97.90
25200;DHT22;33094;48.782;9.162;2023-04-15T16:38:11;11.40;98.30
25200;DHT22;33094;48.782;9.162;2023-04-15T16:40:36;11.40;98.50
25200;DHT22;33094;48.782;9.162;2023-04-15T16:43:02;11.50;98.80
25200;DHT22;33094;48.782;9.162;2023-04-15T16:45:28;11.40;98.80
25200;DHT22;33094;48.782;9.162;2023-04-15T16:47:54;11.40;99.30
25200;DHT22;33094;48.782;9.162;2023-04-15T16:50:21;11.30;99.30
25200;DHT22;33094;48.782;9.162;2023-04-15T16:52:46;11.30;99.60
25200;DHT22;33094;48.782;9.162;2023-04-15T16:55:12;11.40;99.80
25200;DHT22;33094;48.782;9.162;2023-04-15T16:57:38;11.30;99.60
25200;DHT22;33094;48.782;9.162;2023-04-15T17:00:04;11.20;99.90
25200;DHT22;33094;48.782;9.162;2023-04-15T17:02:30;11.10;99.90
25200;DHT22;33094;48.782;9.162;2023-04-15T17:04:55;11.00;99.90
25200;DHT22;33094;48.782;9.162;2023-04-15T17:07:21;10.90;99.90
25200;DHT22;33094;48.782;9.162;2023-04-15T17:09:47;10.80;99.90
25200;DHT22;33094;48.782;9.162;2023-04-15T17:12:13;10.80;99.90
25200;DHT22;33094;48.782;9.162;2023-04-15T17:14:38;10.70;99.90
25200;DHT22;33094;48.782;9.162;2023-04-15T17:17:05;10.60;99.90
25200;DHT22;33094;48.782;9.162;2023-04-15T17:19:30;10.40;99.90
25200;DHT22;33094;48.782;9.162;2023-04-15T17:21:58;10.30;99.90
25200;DHT22;33094;48.782;9.162;2023-04-15T17:24:25;10.00;99.90
25200;DHT22;33094;48.782;9.162;2023-04-15T17:26:52;10.10;99.90
25200;DHT22;33094;48.782;9.162;2023-04-15T17:29:18;10.10;99.90
25200;DHT22;33094;48.782;9.162;2023-04-15T17:31:44;10.10;99.90
25200;DHT22;33094;48.782;9.162;2023-04-15T17:34:09;10.10;99.90
25200;DHT22;33094;48.782;9.162;2023-04-15T17:36:35;10.10;99.90
25200;DHT22;33094;48.782;9.162;2023-04-15T17:39:01;10.10;99.90
25200;DHT22;33094;48.782;9.162;2023-04-15T17:41:26;10.20;99.90
25200;DHT22;33094;48.782;9.162;2023-04-15T17:43:52;10.20;99.90
25200;DHT22;33094;48.782;9.162;2023-04-15T17:46:17;10.40;99.90
25200;DHT22;33094;48.782;9.162;2023-04-15T17:48:44;10.40;99.90
25200;DHT22;33094;48.782;9.162;2023-04-15T17:51:10;10.30;99.90
25200;DHT22;33094;48.782;9.162;2023-04-15T17:53:37;10.20;99.90
25200;DHT22;33094;48.782;9.162;2023-04-15T17:56:02;10.10;99.90
25200;DHT22;33094;48.782;9.162;2023-04-15T17:58:28;10.10;99.90
25200;DHT22;33094;48.782;9.162;2023-04-15T18:00:54;10.00;99.90
25200;DHT22;33094;48.782;9.162;2023-04-15T18:03:20;10.00;99.90
25200;DHT22;33094;48.782;9.162;2023-04-15T18:05:46;10.10;99.90
25200;DHT22;33094;48.782;9.162;2023-04-15T18:08:12;10.00;99.90
25200;DHT22;33094;48.782;9.162;2023-04-15T18:10:38;9.90;99.90
25200;DHT22;33094;48.782;9.162;2023-04-15T18:13:03;9.90;99.90
25200;DHT22;33094;48.782;9.162;2023-04-15T18:15:29;9.90;99.90
25200;DHT22;33094;48.782;9.162;2023-04-15T18:17:56;9.80;99.90
25200;DHT22;33094;48.782;9.162;2023-04-15T18:20:22;9.80;99.90
25200;DHT22;33094;48.782;9.162;2023-04-15T18:22:47;9.80;99.90
25200;DHT22;33094;48.782;9.162;2023-04-15T18:25:13;9.90;99.90
25200;DHT22;33094;48.782;9.162;2023-04-15T18:27:39;9.90;99.90
25200;DHT22;33094;48.782;9.162;2023-04-15T18:30:09;9.80;99.90
25200;DHT22;33094;48.782;9.162;2023-04-15T18:32:35;9.80;99.90
25200;DHT22;33094;48.782;9.162;2023-04-15T18:35:00;9.70;99.90
25200;DHT22;33094;48.782;9.162;2023-04-15T18:37:26;9.60;99.90
25200;DHT22;33094;48.782;9.162;2023-04-15T18:39:54;9.50;99.90
25200;DHT22;33094;48.782;9.162;2023-04-15T18:42:20;9.50;99.90
25200;DHT22;33094;48.782;9.162;2023-04-15T18:44:47;9.40;99.90
25200;DHT22;33094;48.782;9.162;2023-04-15T18:47:12;9.30;99.90
25200;DHT22;33094;48.782;9.162;2023-04-15T18:49:38;9.30;99.90
25200;DHT22;33094;48.782;9.162;2023-04-15T18:52:04;9.10;99.90
25200;DHT22;33094;48.782;9.162;2023-04-15T18:54:30;9.10;99.90
25200;DHT22;33094;48.782;9.162;2023-04-15T18:56:56;9.10;99.90
25200;DHT22;33094;48.782;9.162;2023-04-15T18:59:22;9.00;99.90
25200;DHT22;33094;48.782;9.162;2023-04-15T19:01:48;9.00;99.90
25200;DHT22;33094;48.782;9.162;2023-04-15T19:04:13;9.10;99.90
25200;DHT22;33094;48.782;9.162;2023-04-15T19:06:39;8.90;99.90
25200;DHT22;33094;48.782;9.162;2023-04-15T19:09:05;8.90;99.90
25200;DHT22;33094;48.782;9.162;2023-04-15T19:11:30;9.00;99.90
25200;DHT22;33094;48.782;9.162;2023-04-15T19:13:56;8.90;99.90
25200;DHT22;33094;48.782;9.162;2023-04-15T19:16:22;8.90;99.90
25200;DHT22;33094;48.782;9.162;2023-04-15T19:18:47;8.90;99.90
25200;DHT22;33094;48.782;9.162;2023-04-15T19:21:14;9.00;99.90
25200;DHT22;33094;48.782;9.162;2023-04-15T19:23:40;9.00;99.90
25200;DHT22;33094;48.782;9.162;2023-04-15T19:26:07;9.00;99.90
25200;DHT22;33094;48.782;9.162;2023-04-15T19:28:33;9.00;99.90
25200;DHT22;33094;48.782;9.162;2023-04-15T19:30:59;9.00;99.90
25200;DHT22;33094;48.782;9.162;2023-04-15T19:33:24;9.00;99.90
25200;DHT22;33094;48.782;9.162;2023-04-15T19:36:01;8.80;99.90
25200;DHT22;33094;48.782;9.162;2023-04-15T19:38:28;8.90;99.90
25200;DHT22;33094;48.782;9.162;2023-04-15T19:40:55;8.80;99.90
25200;DHT22;33094;48.782;9.162;2023-04-15T19:43:21;8.70;99.90
25200;DHT22;33094;48.782;9.162;2023-04-15T19:45:47;8.70;99.90
25200;DHT22;33094;48.782;9.162;2023-04-15T19:48:16;8.70;99.90
25200;DHT22;33094;48.782;9.162;2023-04-15T19:50:42;8.70;99.90
25200;DHT22;33094;48.782;9.162;2023-04-15T19:53:08;8.80;99.90
25200;DHT22;33094;48.782;9.162;2023-04-15T19:55:33;8.80;99.90
25200;DHT22;33094;48.782;9.162;2023-04-15T19:57:59;8.80;99.90
25200;DHT22;33094;48.782;9.162;2023-04-15T20:00:25;8.80;99.90
25200;DHT22;33094;48.782;9.162;2023-04-15T20:02:51;8.90;99.90
25200;DHT22;33094;48.782;9.162;2023-04-15T20:05:17;8.70;99.90
25200;DHT22;33094;48.782;9.162;2023-04-15T20:07:43;8.70;99.90
25200;DHT22;33094;48.782;9.162;2023-04-15T20:10:12;8.70;99.90
25200;DHT22;33094;48.782;9.162;2023-04-15T20:12:40;8.70;99.90
25200;DHT22;33094;48.782;9.162;2023-04-15T20:15:07;8.70;99.90
25200;DHT22;33094;48.782;9.162;2023-04-15T20:17:34;8.90;99.90
25200;DHT22;33094;48.782;9.162;2023-04-15T20:20:00;8.90;99.90
25200;DHT22;33094;48.782;9.162;2023-04-15T20:22:25;8.90;99.90
25200;DHT22;33094;48.782;9.162;2023-04-15T20:24:51;9.10;99.90
25200;DHT22;33094;48.782;9.162;2023-04-15T20:27:18;8.90;99.90
25200;DHT22;33094;48.782;9.162;2023-04-15T20:29:44;8.90;99.90
25200;DHT22;33094;48.782;9.162;2023-04-15T20:32:10;8.80;99.90
25200;DHT22;33094;48.782;9.162;2023-04-15T20:34:37;8.80;99.90
25200;DHT22;33094;48.782;9.162;2023-04-15T20:37:05;8.70;99.90
25200;DHT22;33094;48.782;9.162;2023-04-15T20:39:30;8.70;99.90
25200;DHT22;33094;48.782;9.162;2023-04-15T20:41:56;8.80;99.90
25200;DHT22;33094;48.782;9.162;2023-04-15T20:44:22;8.80;99.90
25200;DHT22;33094;48.782;9.162;2023-04-15T20:46:47;8.90;99.90
25200;DHT22;33094;48.782;9.162;2023-04-15T20:49:13;8.90;99.90
25200;DHT22;33094;48.782;9.162;2023-04-15T20:51:39;8.80;99.90
25200;DHT22;33094;48.782;9.162;2023-04-15T20:54:05;8.70;99.90
25200;DHT22;33094;48.782;9.162;2023-04-15T20:56:30;8.80;99.90
25200;DHT22;33094;48.782;9.162;2023-04-15T20:58:56;8.70;99.90
25200;DHT22;33094;48.782;9.162;2023-04-15T21:01:22;8.70;99.90
25200;DHT22;33094;48.782;9.162;2023-04-15T21:03:48;8.70;99.90
25200;DHT22;33094;48.782;9.162;2023-04-15T21:06:14;8.70;99.90
25200;DHT22;33094;48.782;9.162;2023-04-15T21:08:39;8.70;99.90
25200;DHT22;33094;48.782;9.162;2023-04-15T21:11:05;8.80;99.90
25200;DHT22;33094;48.782;9.162;2023-04-15T21:13:31;8.90;99.90
25200;DHT22;33094;48.782;9.162;2023-04-15T21:15:56;8.90;99.90
25200;DHT22;33094;48.782;9.162;2023-04-15T21:18:22;8.90;99.90
25200;DHT22;33094;48.782;9.162;2023-04-15T21:21:01;9.00;99.90
25200;DHT22;33094;48.782;9.162;2023-04-15T21:23:27;9.00;99.90
25200;DHT22;33094;48.782;9.162;2023-04-15T21:25:54;8.90;99.90
25200;DHT22;33094;48.782;9.162;2023-04-15T21:28:20;8.80;99.90
25200;DHT22;33094;48.782;9.162;2023-04-15T21:30:46;8.70;99.90
25200;DHT22;33094;48.782;9.162;2023-04-15T21:33:12;8.70;99.90